City Of Vicksburg — WDC2660 — position and weather

sailwx.info

Track history (hours):
 
Tides and Currents Weather Stations Pressure Air Temp Water Temp Dewpoint Dewpoint Depression Visibility Wind Speed Wind Dir Waves Ship Positions

City Of Vicksburg

Owner: Kirby Inland Marine LP, Houston, TX. More information available from US FCC via Universal Licensing System and Coast Guard Vessel Documentation Center.

Last reported at 2015-Jul-22 14:22 UTC. Time now 2015-Aug-02 12:21 UTC.
Position N 38°47' W 084°06'.
Warning: this ship's position is 10 days out of date.

Length 320 m.

Type: Towing. MMSI: 366996120.

Date/timePositionNaut miles runAvg speedWind from/ knotsBaromVisibWave heightAir tempDewpointWater temp
2015-Jul-22 14:22N 38°47' W 084°06'4 2.2
2015-Jul-22 12:31N 38°48' W 084°11'3 3.5
2015-Jul-22 11:32N 38°51' W 084°14'5 4.8
2015-Jul-22 10:33N 38°55' W 084°16'5 4.9
2015-Jul-22 09:33N 38°60' W 084°18'5 4.7
2015-Jul-22 08:33N 39°03' W 084°23'4 4.2
2015-Jul-22 07:33N 39°06' W 084°26'4 4.2
2015-Jul-22 06:33N 39°05' W 084°32'2 1.8
2015-Jul-22 05:33N 39°05' W 084°34'4 4.3
2015-Jul-22 04:33N 39°06' W 084°39'4 4.6
2015-Jul-22 03:33N 39°08' W 084°44'  
Track history (hours):
 
Tides and Currents Weather Stations Pressure Air Temp Water Temp Dewpoint Dewpoint Depression Visibility Wind Speed Wind Dir Waves Ship Positions

City Of Vicksburg

Owner: Kirby Inland Marine LP, Houston, TX. More information available from US FCC via Universal Licensing System and Coast Guard Vessel Documentation Center.

Last reported at 2015-Jul-22 14:22 UTC. Time now 2015-Aug-02 12:21 UTC.
Position N 38°47' W 084°06'.
Warning: this ship's position is 10 days out of date.

Length 320 m.

Type: Towing. MMSI: 366996120.

Date/timePositionNaut miles runAvg speedWind from/ knotsBaromVisibWave heightAir tempDewpointWater temp
2015-Jul-22 14:22N 38°47' W 084°06'4 2.2
2015-Jul-22 12:31N 38°48' W 084°11'3 3.5
2015-Jul-22 11:32N 38°51' W 084°14'5 4.8
2015-Jul-22 10:33N 38°55' W 084°16'5 4.9
2015-Jul-22 09:33N 38°60' W 084°18'5 4.7
2015-Jul-22 08:33N 39°03' W 084°23'4 4.2
2015-Jul-22 07:33N 39°06' W 084°26'4 4.2
2015-Jul-22 06:33N 39°05' W 084°32'2 1.8
2015-Jul-22 05:33N 39°05' W 084°34'4 4.3
2015-Jul-22 04:33N 39°06' W 084°39'4 4.6
2015-Jul-22 03:33N 39°08' W 084°44'  

Dump ship's entire track history